Time;durP1;ratioP1;P1;durP2;ratioP2;P2;SDS_P1;SDS_P2;PMS_P1;PMS_P2;Temp;Humidity;BMP_temperature;BMP_pressure;BME280_temperature;BME280_humidity;BME280_pressure;Samples;Min_cycle;Max_cycle;Signal;HPM_P1;HPM_P2
2021/03/14 00:00:52;;;;;;;7.37;6.37;;;;;;;4.94;68.64;98053.16;1783986;79;21117;-57
2021/03/14 00:03:21;;;;;;;9.13;7.03;;;;;;;4.92;68.60;98048.07;1755853;79;21193;-57
2021/03/14 00:05:51;;;;;;;8.43;6.53;;;;;;;4.88;68.64;98046.75;1747119;79;21112;-57
2021/03/14 00:08:21;;;;;;;6.65;5.87;;;;;;;4.85;68.76;98052.84;1747067;78;21586;-56
2021/03/14 00:10:52;;;;;;;8.30;6.17;;;;;;;4.81;68.84;98055.50;1784019;79;20972;-56
2021/03/14 00:13:23;;;;;;;7.70;6.35;;;;;;;4.77;68.99;98053.68;1759696;78;21144;-57
2021/03/14 00:15:50;;;;;;;7.05;5.70;;;;;;;4.75;69.11;98049.08;1765065;80;21579;-56
2021/03/14 00:18:19;;;;;;;6.75;5.35;;;;;;;4.73;69.22;98052.39;1783862;79;20978;-59
2021/03/14 00:20:47;;;;;;;8.23;6.58;;;;;;;4.74;69.25;98043.50;1728621;81;21581;-59
2021/03/14 00:23:14;;;;;;;7.62;5.60;;;;;;;4.74;69.21;98042.67;1717422;81;21045;-55
2021/03/14 00:25:42;;;;;;;7.65;5.87;;;;;;;4.75;69.19;98042.50;1724129;82;20939;-57
2021/03/14 00:28:09;;;;;;;7.80;6.45;;;;;;;4.76;69.15;98040.20;1769847;78;21333;-56
2021/03/14 00:30:36;;;;;;;7.62;6.10;;;;;;;4.77;69.12;98037.88;1773703;79;21177;-56
2021/03/14 00:33:05;;;;;;;7.08;5.58;;;;;;;4.76;69.15;98037.56;1747080;78;21056;-57
2021/03/14 00:35:32;;;;;;;7.40;5.85;;;;;;;4.77;69.06;98031.81;1782272;78;21516;-57
2021/03/14 00:37:59;;;;;;;6.62;5.75;;;;;;;4.73;69.15;98025.21;1766175;79;21107;-56
2021/03/14 00:40:27;;;;;;;6.83;5.87;;;;;;;4.71;69.25;98028.03;1790729;78;21386;-56
2021/03/14 00:42:57;;;;;;;6.45;5.37;;;;;;;4.71;69.25;98028.03;1762316;79;21024;-58
2021/03/14 00:45:28;;;;;;;6.45;4.92;;;;;;;4.74;69.24;98029.02;1780087;79;21076;-57
2021/03/14 00:47:57;;;;;;;6.33;5.42;;;;;;;4.76;69.19;98025.71;1773919;78;21056;-58
2021/03/14 00:50:25;;;;;;;7.58;5.45;;;;;;;4.78;69.14;98018.45;1775802;78;21140;-58
2021/03/14 00:52:53;;;;;;;6.00;5.28;;;;;;;4.76;69.11;98023.08;1779834;79;21322;-57
2021/03/14 00:55:22;;;;;;;5.92;5.25;;;;;;;4.75;69.16;98021.91;1791496;79;21078;-57
2021/03/14 00:57:49;;;;;;;6.62;5.47;;;;;;;4.74;69.18;98026.38;1773977;79;21001;-56
2021/03/14 01:00:18;;;;;;;9.08;5.33;;;;;;;4.74;69.23;98028.19;1783144;79;21129;-57
2021/03/14 01:02:46;;;;;;;6.78;5.25;;;;;;;4.74;69.23;98021.60;1803701;79;21056;-57
2021/03/14 01:05:14;;;;;;;6.42;5.40;;;;;;;4.72;69.29;98017.00;1776598;79;21355;-57
2021/03/14 01:07:44;;;;;;;7.70;5.60;;;;;;;4.72;69.29;98015.16;1774010;79;20954;-57
2021/03/14 01:10:13;;;;;;;7.87;5.53;;;;;;;4.70;69.28;98000.03;1782468;79;20958;-56
2021/03/14 01:12:40;;;;;;;6.62;5.53;;;;;;;4.67;69.41;97995.09;1788969;79;21033;-57
2021/03/14 01:15:12;;;;;;;8.70;5.95;;;;;;;4.64;69.50;98002.53;1798399;78;21065;-56
2021/03/14 01:17:42;;;;;;;7.33;5.85;;;;;;;4.64;69.60;97990.16;1773313;78;21142;-57
2021/03/14 01:20:15;;;;;;;8.53;6.10;;;;;;;4.62;69.71;97990.00;1775972;79;20981;-55
2021/03/14 01:22:43;;;;;;;7.55;5.60;;;;;;;4.60;69.78;97991.50;1774067;79;21517;-56
2021/03/14 01:25:12;;;;;;;7.15;5.03;;;;;;;4.61;69.84;97994.96;1775246;78;21147;-57
2021/03/14 01:27:45;;;;;;;10.85;5.50;;;;;;;4.63;69.83;97992.97;1791688;79;21152;-56
2021/03/14 01:30:16;;;;;;;7.55;5.62;;;;;;;4.63;69.81;97984.58;1773879;79;21382;-57
2021/03/14 01:32:46;;;;;;;8.00;5.65;;;;;;;4.63;69.81;97978.00;1803424;79;21558;-56
2021/03/14 01:35:15;;;;;;;6.83;5.12;;;;;;;4.63;69.79;97968.78;1785376;79;21610;-57
2021/03/14 01:37:43;;;;;;;6.62;5.33;;;;;;;4.64;69.77;97976.19;1800414;79;21069;-56
2021/03/14 01:40:16;;;;;;;8.28;5.85;;;;;;;4.66;69.75;97972.39;1784475;79;20942;-56
2021/03/14 01:42:44;;;;;;;6.15;5.17;;;;;;;4.69;69.71;97966.77;1786406;79;23811;-57
2021/03/14 01:45:13;;;;;;;7.08;5.53;;;;;;;4.70;69.68;97968.42;1770866;79;20950;-56
2021/03/14 01:47:50;;;;;;;7.90;5.20;;;;;;;4.71;69.68;97962.17;1765708;79;20989;-57
2021/03/14 01:50:24;;;;;;;7.45;4.70;;;;;;;4.71;69.70;97958.22;1755292;79;20949;-57
2021/03/14 01:52:53;;;;;;;10.48;5.37;;;;;;;4.68;69.76;97965.63;1758826;78;21483;-57
2021/03/14 01:55:23;;;;;;;5.58;4.70;;;;;;;4.63;69.83;97960.88;1763483;80;21385;-57
2021/03/14 01:57:52;;;;;;;6.70;4.75;;;;;;;4.60;69.97;97958.58;1753038;78;21088;-57
2021/03/14 02:00:24;;;;;;;8.00;5.55;;;;;;;4.56;70.10;97966.50;1765687;79;21092;-56
2021/03/14 02:02:51;;;;;;;6.70;5.20;;;;;;;4.51;70.30;97964.84;1783131;79;20911;-58
2021/03/14 02:05:20;;;;;;;9.00;5.15;;;;;;;4.49;70.49;97966.83;1783591;78;20993;-56
2021/03/14 02:07:51;;;;;;;7.50;5.33;;;;;;;4.48;70.57;97965.20;1774765;80;21368;-57
2021/03/14 02:10:25;;;;;;;6.42;5.12;;;;;;;4.49;70.67;97973.41;1752021;79;20997;-57
2021/03/14 02:13:26;;;;;;;5.85;4.40;;;;;;;4.47;70.81;97968.81;1759730;79;21038;-57
2021/03/14 02:16:12;;;;;;;6.70;5.30;;;;;;;4.46;70.91;97971.63;1765788;79;20922;-58
2021/03/14 02:18:42;;;;;;;7.22;5.83;;;;;;;4.44;71.01;97961.73;1750116;78;21052;-57
2021/03/14 02:21:11;;;;;;;6.62;5.25;;;;;;;4.43;71.09;97964.06;1769892;80;21379;-56
2021/03/14 02:24:10;;;;;;;5.85;5.03;;;;;;;4.42;71.12;97959.28;1793384;79;21357;-56
2021/03/14 02:26:47;;;;;;;5.03;4.45;;;;;;;4.42;71.18;97960.60;1765130;79;21008;-56
2021/03/14 02:29:19;;;;;;;;;;;;;;;4.41;71.25;97962.09;1768286;79;21029;-56
2021/03/14 02:31:48;;;;;;;7.75;5.05;;;;;;;4.42;71.31;97958.45;1753959;79;20215;-57
2021/03/14 02:34:25;;;;;;;7.20;5.33;;;;;;;4.43;71.33;97960.11;1774871;79;21363;-57
2021/03/14 02:36:53;;;;;;;6.62;4.62;;;;;;;4.42;71.35;97953.19;1776547;79;21002;-57
2021/03/14 02:39:23;;;;;;;5.62;4.72;;;;;;;4.42;71.36;97950.06;1749314;79;21151;-57
2021/03/14 02:41:52;;;;;;;5.47;4.55;;;;;;;4.43;71.30;97953.04;1775260;80;21608;-58
2021/03/14 02:44:23;;;;;;;9.83;4.92;;;;;;;4.46;71.19;97955.31;1763335;79;21143;-57
2021/03/14 02:46:51;;;;;;;6.87;4.65;;;;;;;4.49;71.11;97961.56;1773095;79;21368;-57
2021/03/14 02:49:21;;;;;;;6.53;5.15;;;;;;;4.51;70.98;97961.41;1787739;79;20981;-58
2021/03/14 02:51:49;;;;;;;6.30;5.10;;;;;;;4.51;70.84;97956.94;1752169;79;21067;-56
2021/03/14 02:54:18;;;;;;;5.97;4.80;;;;;;;4.53;70.81;97961.57;1768693;78;21025;-57
2021/03/14 02:56:47;;;;;;;6.00;4.53;;;;;;;4.54;70.72;97961.88;1750845;81;21096;-56
2021/03/14 02:59:17;;;;;;;6.62;4.33;;;;;;;4.54;70.62;97959.24;1758056;78;22299;-57
2021/03/14 03:01:46;;;;;;;6.70;5.05;;;;;;;4.53;70.60;97957.62;1760062;78;21159;-56
2021/03/14 03:04:16;;;;;;;7.33;4.85;;;;;;;4.53;70.58;97949.72;1758230;79;21038;-56
2021/03/14 03:06:44;;;;;;;5.78;4.65;;;;;;;4.54;70.49;97939.98;1757985;79;21052;-55
2021/03/14 03:09:12;;;;;;;7.95;4.70;;;;;;;4.54;70.44;97938.17;1765785;79;20946;-57
2021/03/14 03:11:41;;;;;;;6.58;5.08;;;;;;;4.52;70.33;97953.33;1762271;79;21207;-56
2021/03/14 03:14:14;;;;;;;7.50;4.95;;;;;;;4.51;70.33;97950.87;1775005;79;21383;-57
2021/03/14 03:16:42;;;;;;;4.75;4.20;;;;;;;4.51;70.27;97949.56;1760901;79;21004;-55
2021/03/14 03:19:14;;;;;;;9.60;5.40;;;;;;;4.50;70.26;97942.15;1764250;79;20982;-56
2021/03/14 03:21:42;;;;;;;6.00;5.12;;;;;;;4.49;70.21;97943.13;1796025;79;21051;-56
2021/03/14 03:24:11;;;;;;;8.05;5.25;;;;;;;4.48;70.24;97949.41;1794457;79;21971;-56
2021/03/14 03:26:41;;;;;;;9.30;5.50;;;;;;;4.50;70.18;97952.69;1766193;78;21116;-56
2021/03/14 03:29:09;;;;;;;6.92;5.17;;;;;;;4.53;70.15;97959.42;1794723;78;21573;-56
2021/03/14 03:31:37;;;;;;;5.85;4.75;;;;;;;4.53;70.07;97958.94;1767960;79;21068;-56
2021/03/14 03:34:07;;;;;;;6.28;5.17;;;;;;;4.55;69.98;97951.68;1785670;79;21101;-56
2021/03/14 03:36:36;;;;;;;4.80;4.10;;;;;;;4.55;69.87;97956.95;1796298;79;21462;-57
2021/03/14 03:39:07;;;;;;;5.62;4.70;;;;;;;4.55;69.77;97962.70;1755046;79;20929;-57
2021/03/14 03:41:54;;;;;;;7.12;5.62;;;;;;;4.53;69.79;97956.79;1747188;79;21147;-58
2021/03/14 03:44:22;;;;;;;5.45;4.83;;;;;;;4.53;69.75;97958.11;1790805;78;21089;-57
2021/03/14 03:46:52;;;;;;;5.62;4.72;;;;;;;4.53;69.68;97951.03;1805745;79;21162;-57
2021/03/14 03:51:47;;;;;;;8.15;4.58;;;;;;;4.59;69.62;97940.32;1821002;78;25652;-57
2021/03/14 03:54:14;;;;;;;8.35;5.25;;;;;;;4.57;69.54;97949.69;1799381;78;20981;-57
2021/03/14 03:56:42;;;;;;;5.42;4.62;;;;;;;4.59;69.43;97950.34;1775566;77;21333;-58
2021/03/14 03:59:10;;;;;;;6.55;4.78;;;;;;;4.60;69.32;97948.04;1758085;79;20980;-57
2021/03/14 04:01:37;;;;;;;5.50;4.03;;;;;;;4.61;69.25;97942.28;1771337;79;20961;-57
2021/03/14 04:04:06;;;;;;;6.05;4.53;;;;;;;4.63;69.21;97942.92;1746614;79;20958;-57
2021/03/14 04:06:33;;;;;;;10.40;5.28;;;;;;;4.63;69.12;97935.85;1772034;79;20922;-57
2021/03/14 04:09:01;;;;;;;6.25;4.42;;;;;;;4.64;69.08;97936.16;1793421;79;21385;-57
2021/03/14 04:11:28;;;;;;;5.97;4.37;;;;;;;4.64;69.01;97946.70;1772040;79;21000;-57
2021/03/14 04:13:56;;;;;;;9.10;4.83;;;;;;;4.65;69.01;97945.72;1768471;80;20985;-57
2021/03/14 04:16:23;;;;;;;6.83;4.03;;;;;;;4.66;68.95;97944.73;1768898;79;21475;-57
2021/03/14 04:18:51;;;;;;;5.40;3.67;;;;;;;4.69;68.90;97945.69;1759353;79;21140;-57
2021/03/14 04:21:19;;;;;;;6.15;4.30;;;;;;;4.72;68.85;97941.92;1777007;79;21366;-58
2021/03/14 04:23:49;;;;;;;6.10;4.50;;;;;;;4.74;68.71;97940.76;1768175;79;21045;-57
2021/03/14 04:26:20;;;;;;;7.62;4.37;;;;;;;4.77;68.57;97944.87;1764114;80;21426;-57
2021/03/14 04:28:48;;;;;;;6.00;4.08;;;;;;;4.77;68.53;97939.08;1764748;79;21131;-57
2021/03/14 04:31:17;;;;;;;8.10;4.17;;;;;;;4.80;68.25;97948.45;1777216;79;21578;-58
2021/03/14 04:33:44;;;;;;;6.80;4.30;;;;;;;4.84;68.06;97948.45;1778226;78;21491;-58
2021/03/14 04:36:12;;;;;;;4.70;3.72;;;;;;;4.86;67.92;97959.63;1803836;79;20901;-57
2021/03/14 04:38:40;;;;;;;6.12;4.47;;;;;;;4.88;67.75;97942.66;1783655;79;20993;-58
2021/03/14 04:41:07;;;;;;;5.20;4.37;;;;;;;4.92;67.64;97943.15;1764244;79;21052;-58
2021/03/14 04:43:35;;;;;;;5.42;4.58;;;;;;;4.93;67.60;97949.55;1765881;79;20925;-57
2021/03/14 04:46:03;;;;;;;6.70;4.80;;;;;;;4.93;67.46;97945.59;1773564;79;21390;-57
2021/03/14 04:48:31;;;;;;;7.00;4.28;;;;;;;4.92;67.35;97940.52;1758155;79;21005;-57
2021/03/14 04:50:58;;;;;;;6.20;4.20;;;;;;;4.94;67.16;97938.03;1794687;79;21021;-57
2021/03/14 04:53:27;;;;;;;6.87;4.85;;;;;;;4.98;67.14;97939.31;1796979;78;20966;-56
2021/03/14 04:55:56;;;;;;;6.85;4.85;;;;;;;5.02;67.08;97939.80;1781468;79;20915;-56
2021/03/14 04:58:24;;;;;;;6.33;4.30;;;;;;;5.05;66.89;97938.63;1749632;78;21382;-57
2021/03/14 05:00:51;;;;;;;7.85;4.37;;;;;;;5.09;66.81;97943.87;1747713;78;21012;-58
2021/03/14 05:03:23;;;;;;;8.45;4.37;;;;;;;5.11;66.54;97934.80;1753124;79;21036;-58
2021/03/14 05:05:52;;;;;;;7.28;5.03;;;;;;;5.10;66.49;97927.08;1788597;79;21551;-58
2021/03/14 05:08:22;;;;;;;7.60;4.40;;;;;;;5.11;66.42;97940.06;1761813;78;21115;-58
2021/03/14 05:10:51;;;;;;;6.33;4.40;;;;;;;5.12;66.32;97929.03;1775607;78;21347;-57
2021/03/14 05:13:20;;;;;;;9.20;4.08;;;;;;;5.14;66.20;97931.82;1783003;79;20992;-56
2021/03/14 05:15:51;;;;;;;8.10;4.67;;;;;;;5.16;65.89;97923.27;1776268;78;21096;-57
2021/03/14 05:18:19;;;;;;;6.35;4.15;;;;;;;5.18;65.88;97925.22;1747223;79;21091;-57
2021/03/14 05:20:47;;;;;;;5.37;4.78;;;;;;;5.20;65.75;97930.31;1760149;79;21616;-56
2021/03/14 05:23:14;;;;;;;7.62;4.40;;;;;;;5.22;65.49;97925.67;1749679;79;21381;-57
2021/03/14 05:25:45;;;;;;;5.85;4.33;;;;;;;5.22;65.51;97927.82;1763221;78;21172;-57
2021/03/14 05:28:13;;;;;;;5.20;4.20;;;;;;;5.21;65.56;97932.79;1774782;79;21201;-57
2021/03/14 05:30:42;;;;;;;6.62;4.67;;;;;;;5.22;65.50;97919.08;1752574;79;20941;-57
2021/03/14 05:33:11;;;;;;;9.75;4.58;;;;;;;5.20;65.43;97925.03;1751603;79;21101;-56
2021/03/14 05:35:39;;;;;;;6.65;4.17;;;;;;;5.18;65.56;97928.34;1767709;78;21445;-57
2021/03/14 05:38:07;;;;;;;6.25;4.80;;;;;;;5.18;65.60;97928.34;1774766;78;21174;-57
2021/03/14 05:40:35;;;;;;;5.37;4.17;;;;;;;5.18;65.45;97933.63;1780974;78;21024;-57
2021/03/14 05:43:04;;;;;;;7.90;5.08;;;;;;;5.16;65.41;97936.94;1765138;80;21062;-56
2021/03/14 05:45:32;;;;;;;8.85;5.05;;;;;;;5.17;65.51;97935.92;1771233;79;22144;-56
2021/03/14 05:48:00;;;;;;;6.20;3.95;;;;;;;5.19;65.49;97931.32;1771906;79;21257;-57
2021/03/14 05:50:29;;;;;;;8.00;4.95;;;;;;;5.21;65.30;97929.33;1770814;78;21022;-57
2021/03/14 05:52:57;;;;;;;11.57;4.90;;;;;;;5.23;65.24;97930.80;1773913;79;21045;-57
2021/03/14 05:55:25;;;;;;;6.03;4.35;;;;;;;5.24;65.18;97933.73;1788828;79;20918;-57
2021/03/14 05:57:54;;;;;;;8.28;5.10;;;;;;;5.26;65.12;97929.13;1784102;79;21463;-56
2021/03/14 06:00:27;;;;;;;7.95;5.03;;;;;;;5.26;64.99;97932.26;1778259;79;22288;-56
2021/03/14 06:03:00;;;;;;;7.33;4.72;;;;;;;5.24;65.16;97940.84;1784840;79;20910;-56
2021/03/14 06:05:29;;;;;;;5.35;4.58;;;;;;;5.27;65.07;97939.16;1775099;79;21057;-57
2021/03/14 06:07:58;;;;;;;5.90;4.30;;;;;;;5.31;65.10;97936.02;1789380;78;21064;-56
2021/03/14 06:10:28;;;;;;;6.35;4.65;;;;;;;5.32;65.13;97942.91;1796168;79;20997;-56
2021/03/14 06:12:55;;;;;;;6.33;4.87;;;;;;;5.36;65.08;97942.91;1780067;79;21254;-58
2021/03/14 06:15:22;;;;;;;8.13;4.92;;;;;;;5.40;65.06;97944.68;1780805;78;21118;-57
2021/03/14 06:17:50;;;;;;;5.25;4.30;;;;;;;5.42;64.84;97953.27;1787373;78;21037;-59
2021/03/14 06:20:38;;;;;;;6.72;4.80;;;;;;;5.42;64.94;97948.78;1792853;78;21134;-57
2021/03/14 06:23:13;;;;;;;6.40;4.53;;;;;;;5.46;64.93;97954.55;1780966;79;21555;-58
2021/03/14 06:25:43;;;;;;;6.03;5.10;;;;;;;5.49;64.95;97959.47;1789608;78;21362;-57
2021/03/14 06:28:12;;;;;;;6.10;4.80;;;;;;;5.54;64.85;97955.31;1791599;78;21656;-57
2021/03/14 06:30:40;;;;;;;6.62;5.22;;;;;;;5.56;64.88;97950.68;1780231;79;20978;-58
2021/03/14 06:33:14;;;;;;;7.05;4.58;;;;;;;5.61;64.66;97948.83;1787994;79;21150;-60
2021/03/14 06:35:53;;;;;;;6.90;4.65;;;;;;;5.67;64.54;97948.63;1781437;79;21679;-56
2021/03/14 06:38:28;;;;;;;7.60;4.97;;;;;;;5.72;64.56;97955.02;1773881;78;21391;-58
2021/03/14 06:41:08;;;;;;;5.40;4.90;;;;;;;5.81;64.31;97959.25;1778406;78;21579;-58
2021/03/14 06:43:56;;;;;;;7.85;5.10;;;;;;;5.89;63.97;97953.12;1789196;79;20958;-57
2021/03/14 06:46:27;;;;;;;9.58;5.30;;;;;;;5.95;63.83;97965.09;1792640;79;21539;-55
2021/03/14 06:49:16;;;;;;;6.05;5.35;;;;;;;5.96;63.61;97954.87;1783736;78;21109;-57
2021/03/14 06:51:57;;;;;;;6.90;4.87;;;;;;;5.98;63.56;97961.27;1773872;79;23584;-56
2021/03/14 06:54:31;;;;;;;5.60;5.00;;;;;;;5.99;63.48;97959.80;1773722;79;21057;-56
2021/03/14 06:57:13;;;;;;;7.50;5.42;;;;;;;6.00;63.49;97959.27;1792513;79;20950;-57
2021/03/14 06:59:54;;;;;;;9.38;5.95;;;;;;;5.98;63.48;97954.19;1773899;79;20934;-59
2021/03/14 07:02:25;;;;;;;6.17;5.12;;;;;;;5.94;63.48;97955.55;1780911;79;20934;-58
2021/03/14 07:04:59;;;;;;;6.55;4.72;;;;;;;5.90;63.63;97958.20;1785420;79;22294;-58
2021/03/14 07:07:39;;;;;;;7.78;5.25;;;;;;;5.91;63.77;97956.39;1780531;79;21176;-57
2021/03/14 07:10:11;;;;;;;7.10;5.00;;;;;;;5.93;63.64;97957.03;1775186;79;20977;-58
2021/03/14 07:12:44;;;;;;;7.00;5.72;;;;;;;5.95;63.63;97955.03;1779352;79;21566;-57
2021/03/14 07:15:18;;;;;;;6.78;4.67;;;;;;;5.96;63.62;97950.91;1777245;79;21092;-58
2021/03/14 07:17:51;;;;;;;7.90;5.42;;;;;;;6.00;63.48;97956.14;1777642;79;22325;-57
2021/03/14 07:20:23;;;;;;;7.58;5.35;;;;;;;6.01;63.17;97960.44;1776687;79;21645;-58
2021/03/14 07:23:06;;;;;;;7.30;5.62;;;;;;;6.01;62.76;97952.52;1778767;79;21001;-57
2021/03/14 07:25:44;;;;;;;6.10;5.25;;;;;;;6.03;62.77;97948.36;1775921;79;21001;-58
2021/03/14 07:28:12;;;;;;;9.43;5.67;;;;;;;6.07;62.66;97965.02;1784117;79;21116;-58
2021/03/14 07:30:39;;;;;;;7.25;6.42;;;;;;;6.05;62.76;97960.38;1773720;79;21339;-58
2021/03/14 07:33:07;;;;;;;7.62;5.80;;;;;;;6.03;62.72;97959.75;1787490;79;21029;-59
2021/03/14 07:35:35;;;;;;;7.85;5.85;;;;;;;6.04;62.88;97956.61;1774665;79;21190;-55
2021/03/14 07:38:02;;;;;;;6.92;5.72;;;;;;;6.02;62.85;97959.41;1783447;77;20970;-55
2021/03/14 07:40:30;;;;;;;9.03;6.67;;;;;;;6.00;63.20;97965.37;1741417;81;21601;-56
2021/03/14 07:43:00;;;;;;;7.67;5.72;;;;;;;5.95;63.87;97957.17;1776649;78;21335;-56
2021/03/14 07:45:30;;;;;;;9.45;5.80;;;;;;;5.89;64.61;97953.91;1793750;78;21025;-56
2021/03/14 07:47:59;;;;;;;7.58;5.72;;;;;;;5.85;65.42;97957.09;1790161;79;21009;-56
2021/03/14 07:50:30;;;;;;;8.85;6.08;;;;;;;5.81;65.74;97953.97;1775343;79;21685;-57
2021/03/14 07:53:10;;;;;;;9.68;5.85;;;;;;;5.81;66.20;97964.53;1789890;79;21112;-57
2021/03/14 07:55:38;;;;;;;12.85;6.22;;;;;;;5.83;66.68;97966.98;1791674;78;22264;-57
2021/03/14 07:58:12;;;;;;;11.95;5.80;;;;;;;5.80;67.31;97968.16;1787113;77;21159;-60
2021/03/14 08:00:43;;;;;;;6.87;5.83;;;;;;;5.76;68.28;97970.02;1782569;79;21558;-56
2021/03/14 08:03:10;;;;;;;8.75;5.40;;;;;;;5.73;68.88;97976.46;1789484;79;21024;-57
2021/03/14 08:05:48;;;;;;;7.30;5.17;;;;;;;5.73;70.49;97973.00;1789719;79;21108;-56
2021/03/14 08:08:34;;;;;;;4.97;4.47;;;;;;;5.69;71.17;97966.41;1733371;82;21372;-56
2021/03/14 08:11:02;;;;;;;6.28;4.95;;;;;;;5.67;72.32;97969.73;1782234;79;21071;-56
2021/03/14 08:13:37;;;;;;;6.05;5.40;;;;;;;5.60;73.62;97966.99;1785593;79;21036;-56
2021/03/14 08:16:10;;;;;;;6.45;5.58;;;;;;;5.56;74.49;97968.31;1785696;79;21143;-57
2021/03/14 08:18:48;;;;;;;7.92;5.35;;;;;;;5.55;75.37;97968.02;1785625;79;21593;-58
2021/03/14 08:21:30;;;;;;;7.00;6.17;;;;;;;5.58;75.78;97962.36;1718998;80;22273;-57
2021/03/14 08:24:00;;;;;;;6.95;5.92;;;;;;;5.60;76.33;97960.39;1693842;82;21040;-57
2021/03/14 08:26:33;;;;;;;6.78;5.00;;;;;;;5.62;76.76;97953.12;1725933;82;21044;-56
2021/03/14 08:29:12;;;;;;;7.33;5.65;;;;;;;5.66;77.29;97947.80;1782667;79;21032;-57
2021/03/14 08:31:50;;;;;;;6.22;4.90;;;;;;;5.67;77.85;97952.09;1788265;79;21168;-55
2021/03/14 08:34:44;;;;;;;6.12;5.37;;;;;;;5.77;78.33;97955.80;1814876;77;22338;-56
2021/03/14 08:37:25;;;;;;;7.40;5.80;;;;;;;5.76;78.62;97953.66;1792406;78;20973;-56
2021/03/14 08:40:02;;;;;;;5.87;5.28;;;;;;;5.81;78.93;97963.70;1805853;79;21582;-56
2021/03/14 08:42:55;;;;;;;7.53;5.95;;;;;;;5.83;79.25;97977.54;1794374;78;21650;-55
2021/03/14 08:45:45;;;;;;;6.28;5.60;;;;;;;5.85;80.07;97971.12;1807475;78;22825;-55
2021/03/14 08:48:24;;;;;;;8.10;6.42;;;;;;;5.80;80.80;97965.52;1784555;79;22127;-56
2021/03/14 08:50:54;;;;;;;15.30;7.72;;;;;;;5.81;81.45;97963.21;1787845;79;21422;-57
2021/03/14 08:53:25;;;;;;;12.33;7.95;;;;;;;5.84;82.17;97952.80;1781142;79;21005;-56
2021/03/14 08:55:54;;;;;;;13.58;7.53;;;;;;;5.84;82.80;97942.24;1780672;79;20997;-56
2021/03/14 08:58:23;;;;;;;12.47;7.65;;;;;;;5.86;83.34;97954.30;1778005;79;21008;-55
2021/03/14 09:01:10;;;;;;;11.48;7.25;;;;;;;5.90;83.72;97964.80;1785105;79;21641;-56
2021/03/14 09:03:51;;;;;;;11.57;7.97;;;;;;;5.96;84.00;97973.34;1792225;79;21374;-56
2021/03/14 09:06:28;;;;;;;10.65;7.37;;;;;;;6.07;84.14;97978.70;1770723;79;21017;-55
2021/03/14 09:09:07;;;;;;;10.80;7.78;;;;;;;6.17;84.12;97970.86;1786619;79;20973;-57
2021/03/14 09:11:52;;;;;;;11.03;6.70;;;;;;;6.27;84.26;97972.41;1779306;78;21589;-57
2021/03/14 09:14:27;;;;;;;7.62;5.67;;;;;;;6.35;84.49;97977.61;1767048;79;21170;-57
2021/03/14 09:17:06;;;;;;;5.83;4.97;;;;;;;6.43;84.57;97984.97;1788286;79;22198;-56
2021/03/14 09:19:46;;;;;;;6.33;5.47;;;;;;;6.49;84.54;97987.40;1799053;79;21107;-57
2021/03/14 09:22:18;;;;;;;8.98;6.50;;;;;;;6.52;84.50;97979.91;1778965;79;21146;-58
2021/03/14 09:24:53;;;;;;;7.37;6.47;;;;;;;6.54;84.28;97985.86;1771980;79;21136;-56
2021/03/14 09:27:27;;;;;;;6.65;5.90;;;;;;;6.51;83.86;97985.39;1765866;79;21131;-58
2021/03/14 09:30:03;;;;;;;9.18;5.25;;;;;;;6.49;83.35;97982.91;1770352;79;21182;-56
2021/03/14 09:32:36;;;;;;;6.30;5.60;;;;;;;6.50;83.29;97983.73;1776626;79;21112;-56
2021/03/14 09:35:27;;;;;;;6.50;5.30;;;;;;;6.50;83.10;97988.52;1776864;79;21795;-57
2021/03/14 09:38:13;;;;;;;6.03;5.42;;;;;;;6.53;83.08;97987.34;1770993;79;21139;-56
2021/03/14 09:40:46;;;;;;;6.15;5.55;;;;;;;6.48;82.86;97981.29;1777022;78;21017;-56
2021/03/14 09:43:25;;;;;;;6.50;5.75;;;;;;;6.45;82.78;97975.53;1791143;79;21351;-56
2021/03/14 09:46:08;;;;;;;6.70;6.00;;;;;;;6.42;82.89;97979.36;1795004;79;21163;-56
2021/03/14 09:48:41;;;;;;;6.97;6.03;;;;;;;6.37;82.52;97970.33;1767941;79;21134;-56
2021/03/14 09:51:09;;;;;;;7.28;6.25;;;;;;;6.33;82.27;97972.53;1793649;78;21162;-56
2021/03/14 09:53:39;;;;;;;7.42;6.05;;;;;;;6.32;82.17;97970.05;1752411;80;21478;-56
2021/03/14 09:56:13;;;;;;;6.47;5.85;;;;;;;6.34;82.29;97964.91;1788348;79;21362;-56
2021/03/14 09:59:02;;;;;;;6.75;5.92;;;;;;;6.41;82.13;97968.98;1708767;82;21110;-55
2021/03/14 10:01:51;;;;;;;7.28;6.55;;;;;;;6.50;81.82;97957.31;1759905;79;22858;-56
2021/03/14 10:04:19;;;;;;;9.70;6.72;;;;;;;6.45;81.48;97947.30;1718957;82;21084;-57
2021/03/14 10:06:50;;;;;;;13.93;8.98;;;;;;;6.44;81.29;97946.17;1729267;82;20966;-57
2021/03/14 10:09:25;;;;;;;10.68;8.63;;;;;;;6.41;81.13;97938.61;1733112;82;21037;-57
2021/03/14 10:12:05;;;;;;;8.53;7.60;;;;;;;6.37;81.31;97937.31;1726769;82;21554;-56
2021/03/14 10:14:33;;;;;;;10.25;8.05;;;;;;;6.30;81.07;97935.08;1709811;82;21045;-56
2021/03/14 10:17:01;;;;;;;9.60;8.03;;;;;;;6.23;81.17;97933.15;1677304;82;21013;-57
2021/03/14 10:19:30;;;;;;;10.25;8.00;;;;;;;6.25;81.17;97926.88;1733842;82;21285;-57
2021/03/14 10:21:57;;;;;;;12.10;8.75;;;;;;;6.26;81.38;97929.33;1725289;82;21013;-58
2021/03/14 10:24:45;;;;;;;11.88;8.03;;;;;;;6.29;81.39;97924.19;1728402;82;21069;-57
2021/03/14 10:27:22;;;;;;;9.90;8.55;;;;;;;6.25;81.32;97932.16;1728259;82;21135;-57
2021/03/14 10:29:59;;;;;;;10.38;9.25;;;;;;;6.21;81.45;97934.33;1730176;82;21069;-57
2021/03/14 10:32:46;;;;;;;10.70;9.15;;;;;;;6.23;81.85;97949.00;1692068;83;21394;-55
2021/03/14 10:35:19;;;;;;;13.93;10.35;;;;;;;6.27;81.86;97943.36;1677288;84;21585;-56
2021/03/14 10:37:47;;;;;;;10.65;9.55;;;;;;;6.25;81.93;97938.77;1690934;84;21050;-57
2021/03/14 10:40:24;;;;;;;12.50;10.50;;;;;;;6.22;82.36;97934.66;1684741;84;21092;-56
2021/03/14 10:42:53;;;;;;;15.88;10.23;;;;;;;6.23;82.84;97940.28;1694631;84;21140;-57
2021/03/14 10:45:24;;;;;;;12.55;10.85;;;;;;;6.26;83.22;97947.81;1679099;84;21398;-57
2021/03/14 10:48:04;;;;;;;11.18;9.43;;;;;;;6.29;83.30;97950.09;1681827;84;21069;-56
2021/03/14 10:50:38;;;;;;;10.43;9.33;;;;;;;6.32;83.33;97952.88;1687449;84;20918;-56
2021/03/14 10:53:23;;;;;;;11.93;9.75;;;;;;;6.43;83.18;97944.03;1837305;78;22712;-60
2021/03/14 10:56:08;;;;;;;11.10;9.68;;;;;;;6.46;82.90;97945.48;1806883;77;20989;-56
2021/03/14 10:58:40;;;;;;;12.15;9.70;;;;;;;6.51;82.79;97947.08;1744870;80;21427;-59
2021/03/14 11:01:16;;;;;;;10.95;9.70;;;;;;;6.55;82.85;97945.70;1770110;80;21056;-55
2021/03/14 11:03:44;;;;;;;12.20;9.93;;;;;;;6.59;83.04;97956.24;1741588;80;20990;-58
2021/03/14 11:06:24;;;;;;;12.28;10.48;;;;;;;6.60;83.16;97959.19;1773361;78;20974;-56
2021/03/14 11:09:03;;;;;;;12.25;9.25;;;;;;;6.65;83.17;97962.10;1752979;79;21168;-57
2021/03/14 11:11:42;;;;;;;11.08;9.55;;;;;;;6.67;83.14;97964.88;1759819;80;21378;-57
2021/03/14 11:14:37;;;;;;;11.68;10.15;;;;;;;6.69;82.89;97976.11;1749087;80;21057;-57
2021/03/14 11:17:30;;;;;;;13.28;11.57;;;;;;;6.72;82.96;97981.54;1805452;78;22778;-57
2021/03/14 11:20:12;;;;;;;11.55;10.40;;;;;;;6.65;83.15;97974.82;1743452;79;21063;-56
2021/03/14 11:22:41;;;;;;;11.75;9.73;;;;;;;6.62;83.24;97977.03;1776132;79;21347;-56
2021/03/14 11:25:12;;;;;;;17.50;10.20;;;;;;;6.54;83.32;97976.61;1777078;79;21025;-56
2021/03/14 11:27:40;;;;;;;10.60;9.50;;;;;;;6.52;83.69;97974.63;1779771;79;21052;-57
2021/03/14 11:30:09;;;;;;;13.75;10.63;;;;;;;6.51;83.96;97974.33;1779378;79;20989;-56
2021/03/14 11:32:39;;;;;;;12.43;10.20;;;;;;;6.51;84.30;97967.72;1780131;79;20973;-56
2021/03/14 11:35:18;;;;;;;12.28;10.23;;;;;;;6.57;84.67;97955.61;1825623;77;22777;-56
2021/03/14 11:37:55;;;;;;;13.83;10.93;;;;;;;6.56;85.15;97957.43;1806177;79;20926;-57
2021/03/14 11:40:34;;;;;;;12.55;10.82;;;;;;;6.62;85.45;97954.04;1808265;78;23044;-56
2021/03/14 11:43:04;;;;;;;11.08;9.95;;;;;;;6.59;85.73;97950.47;1772196;79;21049;-57
2021/03/14 11:45:34;;;;;;;11.38;9.98;;;;;;;6.64;85.94;97945.95;1776279;79;22269;-56
2021/03/14 11:48:01;;;;;;;15.32;10.03;;;;;;;6.66;86.08;97946.08;1780134;79;20977;-57
2021/03/14 11:50:48;;;;;;;10.38;9.38;;;;;;;6.71;86.07;97951.64;1777353;79;21546;-57
2021/03/14 11:53:17;;;;;;;12.90;10.00;;;;;;;6.72;86.05;97955.11;1777051;79;20950;-55
2021/03/14 11:55:46;;;;;;;10.50;9.40;;;;;;;6.67;86.27;97947.70;1718713;82;21029;-57
2021/03/14 11:58:14;;;;;;;14.73;11.53;;;;;;;6.65;86.70;97956.81;1723732;82;21198;-56
2021/03/14 12:00:42;;;;;;;14.13;11.55;;;;;;;6.56;86.98;97961.39;1740458;81;21033;-56
2021/03/14 12:03:12;;;;;;;16.45;13.08;;;;;;;6.44;87.06;97958.06;1686627;82;21014;-57
2021/03/14 12:05:42;;;;;;;17.20;13.98;;;;;;;6.31;87.40;97949.94;1709962;82;21096;-57